Time;durP1;ratioP1;P1;durP2;ratioP2;P2;SDS_P1;SDS_P2;PMS_P1;PMS_P2;Temp;Humidity;BMP_temperature;BMP_pressure;BME280_temperature;BME280_humidity;BME280_pressure;Samples;Min_cycle;Max_cycle;Signal;HPM_P1;HPM_P2
2022/04/25 00:00:51;;;;;;;6.25;5.53;;;9.10;99.90;;;;;;7319720;32;20211;-59
2022/04/25 00:04:53;;;;;;;10.73;6.43;;;8.90;99.90;;;;;;7313006;32;20195;-59
2022/04/25 00:08:55;;;;;;;6.35;5.72;;;9.00;99.90;;;;;;7320493;32;20394;-59
2022/04/25 00:12:56;;;;;;;7.35;5.22;;;9.00;99.90;;;;;;7318200;32;20103;-59
2022/04/25 00:16:58;;;;;;;6.30;5.62;;;9.00;99.90;;;;;;7318563;32;20112;-59
2022/04/25 00:21:00;;;;;;;8.52;6.10;;;9.00;99.90;;;;;;7315649;32;20562;-59
2022/04/25 00:25:02;;;;;;;12.37;8.43;;;9.00;99.90;;;;;;7319570;32;20236;-59
2022/04/25 00:29:04;;;;;;;14.93;10.70;;;8.90;99.90;;;;;;7318882;32;20130;-59
2022/04/25 00:33:06;;;;;;;15.85;11.98;;;8.90;99.90;;;;;;7319177;32;20163;-60
2022/04/25 00:37:07;;;;;;;14.75;12.63;;;8.80;99.90;;;;;;7318664;32;20251;-59
2022/04/25 00:41:09;;;;;;;14.02;11.90;;;8.80;99.90;;;;;;7314128;32;20833;-59
2022/04/25 00:45:12;;;;;;;13.25;10.20;;;8.70;99.90;;;;;;7316866;32;20229;-59
2022/04/25 00:49:14;;;;;;;12.88;11.00;;;8.60;99.90;;;;;;7318126;32;20231;-60
2022/04/25 00:53:16;;;;;;;10.52;8.45;;;8.60;99.90;;;;;;7319884;32;20520;-60
2022/04/25 00:57:17;;;;;;;10.45;7.80;;;8.50;99.90;;;;;;7318658;32;20195;-59
2022/04/25 01:01:19;;;;;;;7.53;6.55;;;8.40;99.90;;;;;;7318463;32;20119;-59
2022/04/25 01:05:21;;;;;;;11.75;7.45;;;8.30;99.90;;;;;;7318457;32;20210;-59
2022/04/25 01:09:25;;;;;;;14.35;8.98;;;8.20;99.90;;;;;;7319259;32;20137;-59
2022/04/25 01:13:27;;;;;;;11.25;8.75;;;8.20;99.90;;;;;;7321406;32;20232;-59
2022/04/25 01:17:29;;;;;;;14.10;10.02;;;8.00;99.90;;;;;;7314892;32;20497;-58
2022/04/25 01:21:37;;;;;;;12.68;9.85;;;7.90;99.90;;;;;;7332100;32;20107;-59
2022/04/25 01:29:59;;;;;;;12.50;9.30;;;7.80;99.90;;;;;;7314411;32;20133;-59
2022/04/25 01:34:01;;;;;;;10.88;9.05;;;7.80;99.90;;;;;;7314669;32;20234;-59
2022/04/25 01:38:04;;;;;;;11.77;8.98;;;7.80;99.90;;;;;;7320162;32;20112;-59
2022/04/25 01:42:08;;;;;;;7.85;6.62;;;7.80;99.90;;;;;;7318601;32;20117;-59
2022/04/25 01:46:09;;;;;;;8.45;7.50;;;7.70;99.90;;;;;;7317404;32;20476;-59
2022/04/25 01:50:11;;;;;;;9.32;6.32;;;7.80;99.90;;;;;;7319943;32;20314;-59
2022/04/25 01:54:14;;;;;;;7.72;6.03;;;7.70;99.90;;;;;;7317753;32;20310;-59
2022/04/25 01:58:15;;;;;;;6.87;5.90;;;7.90;99.90;;;;;;7324522;32;20112;-59
2022/04/25 02:02:17;;;;;;;7.20;6.10;;;7.90;99.90;;;;;;7313993;32;20250;-59
2022/04/25 02:06:19;;;;;;;7.10;5.85;;;7.90;99.90;;;;;;7319917;32;20222;-60
2022/04/25 02:10:21;;;;;;;8.75;6.70;;;7.90;99.90;;;;;;7322847;32;20214;-59
2022/04/25 02:14:23;;;;;;;10.00;7.43;;;7.90;99.90;;;;;;7307516;32;20130;-59
2022/04/25 02:18:25;;;;;;;9.25;6.93;;;7.90;99.90;;;;;;7317193;32;21072;-59
2022/04/25 02:22:26;;;;;;;8.00;6.70;;;7.90;99.90;;;;;;7315354;32;20440;-59
2022/04/25 02:26:28;;;;;;;9.82;6.82;;;7.90;99.90;;;;;;7323345;32;20675;-60
2022/04/25 02:30:29;;;;;;;9.68;6.68;;;7.80;99.90;;;;;;7321390;32;20107;-59
2022/04/25 02:34:31;;;;;;;7.90;6.40;;;7.80;99.90;;;;;;7321058;32;20449;-59
2022/04/25 02:38:36;;;;;;;8.57;6.62;;;7.80;99.90;;;;;;7322281;32;20154;-60
2022/04/25 02:42:38;;;;;;;7.15;6.28;;;7.80;99.90;;;;;;7321679;32;20566;-60
2022/04/25 02:46:40;;;;;;;7.97;6.32;;;7.80;99.90;;;;;;7321820;32;20134;-59
2022/04/25 02:50:41;;;;;;;7.30;5.90;;;7.90;99.90;;;;;;7321615;32;20220;-58
2022/04/25 02:54:43;;;;;;;11.00;5.55;;;7.80;99.90;;;;;;7327030;32;20264;-59
2022/04/25 02:58:44;;;;;;;7.57;6.28;;;7.80;99.90;;;;;;7323993;32;20226;-59
2022/04/25 03:02:46;;;;;;;7.57;6.25;;;7.70;99.90;;;;;;7319947;32;20233;-59
2022/04/25 03:06:48;;;;;;;8.32;6.22;;;7.60;99.90;;;;;;7320449;32;20577;-59
2022/04/25 03:10:51;;;;;;;8.18;5.97;;;7.60;99.90;;;;;;7319186;32;20115;-59
2022/04/25 03:14:53;;;;;;;8.40;6.70;;;7.40;99.90;;;;;;7308841;32;20128;-59
2022/04/25 03:18:55;;;;;;;7.32;5.75;;;7.30;99.90;;;;;;7314750;32;20111;-59
2022/04/25 03:22:56;;;;;;;6.95;5.90;;;7.30;99.90;;;;;;7322797;32;20120;-60
2022/04/25 03:26:58;;;;;;;7.45;6.57;;;7.20;99.90;;;;;;7320018;32;20531;-59
2022/04/25 03:31:00;;;;;;;7.37;6.53;;;7.10;99.90;;;;;;7316208;32;20222;-60
2022/04/25 03:35:03;;;;;;;9.30;7.40;;;7.00;99.90;;;;;;7320778;32;20278;-59
2022/04/25 03:39:05;;;;;;;8.70;7.32;;;6.90;99.90;;;;;;7314096;32;20234;-59
2022/04/25 03:43:07;;;;;;;8.88;7.12;;;6.80;99.90;;;;;;7320686;32;20107;-59
2022/04/25 03:47:09;;;;;;;10.90;7.18;;;6.70;99.90;;;;;;7317784;32;20203;-59
2022/04/25 03:51:10;;;;;;;9.68;7.68;;;6.60;99.90;;;;;;7320777;32;20210;-59
2022/04/25 03:59:34;;;;;;;10.50;8.23;;;6.40;99.90;;;;;;7316937;32;20116;-59
2022/04/25 04:03:36;;;;;;;11.63;8.75;;;6.30;99.90;;;;;;7318899;32;20107;-59
2022/04/25 04:07:38;;;;;;;10.05;8.20;;;6.30;99.90;;;;;;7319409;32;20112;-59
2022/04/25 04:11:46;;;;;;;13.13;8.77;;;6.40;99.90;;;;;;7316928;32;20107;-59
2022/04/25 04:15:48;;;;;;;10.10;8.32;;;6.30;99.90;;;;;;7315920;32;20183;-59
2022/04/25 04:19:50;;;;;;;11.27;8.50;;;6.30;99.90;;;;;;7317025;32;20151;-59
2022/04/25 04:23:51;;;;;;;13.52;9.13;;;6.30;99.90;;;;;;7309519;32;20282;-59
2022/04/25 04:27:53;;;;;;;10.98;9.35;;;6.30;99.90;;;;;;7316611;32;20111;-59
2022/04/25 04:32:02;;;;;;;12.25;8.27;;;6.40;99.90;;;;;;7314057;32;20446;-59
2022/04/25 04:36:19;;;;;;;11.45;9.35;;;6.40;99.90;;;;;;7315086;32;20237;-58
2022/04/25 04:40:30;;;;;;;10.95;9.38;;;6.50;99.90;;;;;;7312285;32;20238;-65
2022/04/25 04:44:32;;;;;;;13.18;9.05;;;6.50;99.90;;;;;;7316357;32;20879;-59
2022/04/25 04:48:34;;;;;;;11.80;9.82;;;6.50;99.90;;;;;;7315052;32;20128;-60
2022/04/25 04:52:36;;;;;;;11.77;9.80;;;6.40;99.90;;;;;;7317887;32;20563;-60
2022/04/25 04:56:38;;;;;;;15.27;11.27;;;6.40;99.90;;;;;;7317476;32;20438;-60
2022/04/25 05:00:44;;;;;;;13.05;9.48;;;6.40;99.90;;;;;;7315740;32;20560;-68
2022/04/25 05:04:46;;;;;;;11.95;10.02;;;6.30;99.90;;;;;;7314346;32;20298;-60
2022/04/25 05:08:48;;;;;;;11.52;9.63;;;6.30;99.90;;;;;;7304401;32;20234;-60
2022/04/25 05:12:55;;;;;;;11.75;9.95;;;6.40;99.90;;;;;;7305200;32;20199;-61
2022/04/25 05:16:56;;;;;;;12.88;10.65;;;6.40;99.90;;;;;;7310920;32;21629;-60
2022/04/25 05:21:02;;;;;;;12.00;9.90;;;6.40;99.90;;;;;;7303880;32;20578;-69
2022/04/25 05:25:04;;;;;;;11.93;9.68;;;6.40;99.90;;;;;;7306056;32;20210;-61
2022/04/25 05:29:06;;;;;;;11.15;9.80;;;6.60;99.90;;;;;;7302266;32;20336;-62
2022/04/25 05:33:08;;;;;;;12.02;10.45;;;6.60;99.90;;;;;;7308690;32;20771;-60
2022/04/25 05:37:09;;;;;;;11.45;9.73;;;6.70;99.90;;;;;;7314891;32;20621;-61
2022/04/25 05:41:11;;;;;;;13.43;10.68;;;6.80;99.90;;;;;;7312098;32;20567;-67
2022/04/25 05:45:15;;;;;;;13.30;11.07;;;6.70;99.90;;;;;;7310037;32;20205;-61
2022/04/25 05:53:38;;;;;;;14.07;11.07;;;6.80;99.90;;;;;;7326912;32;20261;-68
2022/04/25 05:57:40;;;;;;;13.70;10.13;;;6.90;99.90;;;;;;7320260;32;20201;-59
2022/04/25 06:01:42;;;;;;;13.40;11.27;;;7.00;99.90;;;;;;7318822;32;20143;-59
2022/04/25 06:05:45;;;;;;;17.17;11.35;;;7.10;99.90;;;;;;7317894;32;20217;-59
2022/04/25 06:09:46;;;;;;;15.07;10.85;;;7.20;99.90;;;;;;7320209;32;20112;-59
2022/04/25 06:13:50;;;;;;;14.98;11.88;;;7.20;99.90;;;;;;7320700;32;20115;-59
2022/04/25 06:17:54;;;;;;;13.88;10.85;;;7.30;99.90;;;;;;7309502;32;20122;-59
2022/04/25 06:21:55;;;;;;;12.93;11.40;;;7.30;99.90;;;;;;7313196;32;20199;-67
2022/04/25 06:25:57;;;;;;;13.15;11.05;;;7.40;99.90;;;;;;7309468;32;20310;-60
2022/04/25 06:29:59;;;;;;;14.13;11.82;;;7.60;99.90;;;;;;7302289;32;20103;-63
2022/04/25 06:34:05;;;;;;;15.73;12.98;;;7.60;99.90;;;;;;7306998;32;20195;-61
2022/04/25 06:38:06;;;;;;;15.30;13.68;;;7.70;99.90;;;;;;7309455;32;20182;-62
2022/04/25 06:42:09;;;;;;;14.87;13.02;;;7.80;99.90;;;;;;7304537;32;20621;-66
2022/04/25 06:46:11;;;;;;;15.80;14.20;;;7.90;99.90;;;;;;7309064;32;20209;-62
2022/04/25 06:50:13;;;;;;;17.42;13.52;;;7.80;99.90;;;;;;7303772;32;20559;-61
2022/04/25 06:54:15;;;;;;;15.90;14.20;;;7.90;99.90;;;;;;7309146;32;20336;-61
2022/04/25 06:58:17;;;;;;;18.50;14.25;;;8.00;99.90;;;;;;7314383;32;20115;-60
2022/04/25 07:02:19;;;;;;;16.12;14.13;;;8.10;99.90;;;;;;7313617;32;20137;-68
2022/04/25 07:06:21;;;;;;;20.60;15.07;;;8.10;99.90;;;;;;7313759;32;20292;-60
2022/04/25 07:10:23;;;;;;;15.48;12.50;;;8.20;99.90;;;;;;7314985;32;20147;-60
2022/04/25 07:14:27;;;;;;;15.45;12.80;;;8.20;99.90;;;;;;7312359;32;20227;-60
2022/04/25 07:18:29;;;;;;;14.32;12.65;;;8.30;99.90;;;;;;7316737;32;20137;-60
2022/04/25 07:31:13;;;;;;;13.20;11.65;;;8.20;99.90;;;;;;7310450;32;20278;-61
2022/04/25 07:35:15;;;;;;;14.18;12.60;;;8.20;99.90;;;;;;7305353;32;20646;-62
2022/04/25 07:39:21;;;;;;;16.85;12.75;;;8.30;99.90;;;;;;7307199;32;20191;-61
2022/04/25 07:43:23;;;;;;;17.65;14.52;;;8.40;99.90;;;;;;7300917;32;21290;-60
2022/04/25 07:47:25;;;;;;;19.65;15.52;;;8.50;99.90;;;;;;7305513;32;20242;-68
2022/04/25 07:51:27;;;;;;;19.12;14.77;;;8.40;99.90;;;;;;7309732;32;20137;-61
2022/04/25 07:55:29;;;;;;;17.90;14.40;;;8.50;99.90;;;;;;7310171;32;20194;-61
2022/04/25 07:59:30;;;;;;;15.95;13.77;;;8.50;99.90;;;;;;7306424;32;21289;-61
2022/04/25 08:03:35;;;;;;;17.00;14.18;;;8.60;99.90;;;;;;7305588;32;20247;-62
2022/04/25 08:07:37;;;;;;;18.15;15.27;;;8.60;99.90;;;;;;7298720;32;20758;-68
2022/04/25 08:11:39;;;;;;;19.85;15.23;;;8.60;99.90;;;;;;7305806;32;20261;-61
2022/04/25 08:20:13;;;;;;;20.98;16.65;;;8.60;99.90;;;;;;7308549;32;20208;-69
2022/04/25 08:24:15;;;;;;;20.80;17.08;;;8.60;99.90;;;;;;7307542;32;20626;-61
2022/04/25 08:28:16;;;;;;;20.98;17.65;;;8.70;99.90;;;;;;7300099;32;20288;-61
2022/04/25 08:32:18;;;;;;;20.35;17.90;;;8.70;99.90;;;;;;7313942;32;20183;-60
2022/04/25 08:36:20;;;;;;;21.55;17.52;;;8.70;99.90;;;;;;7317128;32;20227;-60
2022/04/25 08:40:31;;;;;;;20.52;17.40;;;8.70;99.90;;;;;;7312716;32;20182;-68
2022/04/25 08:44:33;;;;;;;20.30;17.87;;;8.80;99.90;;;;;;7319450;32;20225;-61
2022/04/25 08:48:38;;;;;;;20.27;17.85;;;8.80;99.90;;;;;;7312654;32;20127;-60
2022/04/25 08:52:45;;;;;;;25.33;19.52;;;8.80;99.90;;;;;;7306816;32;20310;-63
2022/04/25 08:56:47;;;;;;;27.65;19.27;;;8.80;99.90;;;;;;7307805;32;20267;-60
2022/04/25 09:00:50;;;;;;;24.80;20.35;;;8.90;99.90;;;;;;7309630;32;20115;-60
2022/04/25 09:04:51;;;;;;;28.23;21.77;;;8.80;99.90;;;;;;7305250;32;20554;-62
2022/04/25 09:08:53;;;;;;;29.77;21.48;;;8.80;99.90;;;;;;7305826;32;20697;-61
2022/04/25 09:12:58;;;;;;;26.60;21.98;;;8.90;99.90;;;;;;7308327;32;20191;-63
2022/04/25 09:17:03;;;;;;;27.83;22.50;;;8.90;99.90;;;;;;7299752;32;20232;-61
2022/04/25 09:21:06;;;;;;;27.02;22.55;;;8.90;99.90;;;;;;7307936;32;20198;-62
2022/04/25 09:25:09;;;;;;;29.02;22.70;;;8.90;99.90;;;;;;7308842;32;20115;-60
2022/04/25 09:29:36;;;;;;;26.83;21.87;;;9.00;99.90;;;;;;7314669;32;20222;-61
2022/04/25 09:33:37;;;;;;;25.00;19.90;;;9.10;99.90;;;;;;7321075;32;20658;-61
2022/04/25 09:37:42;;;;;;;27.60;21.27;;;9.20;99.90;;;;;;7319194;32;20209;-60
2022/04/25 09:41:46;;;;;;;25.50;20.65;;;9.10;99.90;;;;;;7322963;32;20120;-62
2022/04/25 09:45:59;;;;;;;24.52;20.20;;;9.20;99.90;;;;;;7318482;32;20643;-71
2022/04/25 09:50:03;;;;;;;22.55;20.23;;;9.40;99.90;;;;;;7318294;32;20217;-62
2022/04/25 09:54:04;;;;;;;23.85;21.08;;;9.40;99.90;;;;;;7313900;32;20316;-61
2022/04/25 09:58:32;;;;;;;23.45;20.83;;;9.60;99.90;;;;;;7316872;32;20364;-68
2022/04/25 10:02:38;;;;;;;;;;;9.50;99.90;;;;;;7312294;32;20205;-69
2022/04/25 10:06:41;;;;;;;21.67;19.33;;;9.60;99.90;;;;;;7317823;32;20157;-61
2022/04/25 10:10:53;;;;;;;19.80;17.70;;;9.60;99.90;;;;;;7309192;32;20210;-61
2022/04/25 10:14:55;;;;;;;16.65;14.87;;;9.70;99.90;;;;;;7313999;32;20230;-68
2022/04/25 10:19:00;;;;;;;16.15;14.30;;;9.70;99.90;;;;;;7319771;32;20107;-61
2022/04/25 10:23:06;;;;;;;16.12;14.52;;;9.70;99.90;;;;;;7322133;32;20111;-61
2022/04/25 10:27:13;;;;;;;16.40;14.75;;;9.80;99.90;;;;;;7318563;32;20138;-60
2022/04/25 10:31:21;;;;;;;17.00;15.20;;;10.00;99.90;;;;;;7321645;32;20213;-62
2022/04/25 10:35:34;;;;;;;16.10;14.48;;;10.20;99.90;;;;;;7316557;32;20235;-63
2022/04/25 10:39:50;;;;;;;15.03;13.00;;;10.40;99.90;;;;;;7316731;32;20218;-63
2022/04/25 10:44:14;;;;;;;12.52;11.32;;;10.50;99.90;;;;;;7319144;32;20639;-61
2022/04/25 10:49:09;;;;;;;15.63;14.00;;;11.20;99.90;;;;;;7315066;32;20330;-60
2022/04/25 10:53:51;;;;;;;10.80;9.70;;;12.60;99.90;;;;;;7315238;32;20183;-61
2022/04/25 10:58:13;;;;;;;12.30;11.00;;;12.80;99.90;;;;;;7304924;32;20133;-69
2022/04/25 11:03:01;;;;;;;10.18;9.25;;;13.10;99.90;;;;;;7312841;32;20848;-67
2022/04/25 11:07:23;;;;;;;10.80;9.70;;;12.40;99.90;;;;;;7314509;32;20202;-60
2022/04/25 11:11:25;;;;;;;14.82;10.15;;;12.10;99.90;;;;;;7313390;32;20139;-68
2022/04/25 11:16:01;;;;;;;11.57;10.32;;;12.10;99.90;;;;;;7314738;32;20318;-60
2022/04/25 11:20:12;;;;;;;11.40;10.25;;;12.20;99.90;;;;;;7317446;32;20124;-61
2022/04/25 11:24:33;;;;;;;11.27;10.18;;;12.10;99.90;;;;;;7313458;32;20619;-61
2022/04/25 11:28:55;;;;;;;12.32;10.07;;;11.90;99.90;;;;;;7319510;32;20654;-61
2022/04/25 11:33:12;;;;;;;10.60;9.50;;;12.20;99.90;;;;;;7310926;32;20439;-60
2022/04/25 11:37:23;;;;;;;;;;;12.40;99.90;;;;;;7314463;32;20141;-68
2022/04/25 11:41:26;;;;;;;11.40;9.60;;;12.30;99.90;;;;;;7312765;32;21620;-61
2022/04/25 11:45:28;;;;;;;10.98;9.80;;;12.40;99.90;;;;;;7317298;32;20122;-60
2022/04/25 11:49:44;;;;;;;12.13;10.85;;;12.20;99.90;;;;;;7314345;32;20188;-61
2022/04/25 11:53:46;;;;;;;11.63;10.02;;;12.00;99.90;;;;;;7313091;32;20092;-61
2022/04/25 11:57:47;;;;;;;10.75;9.55;;;11.90;99.90;;;;;;7309276;32;20542;-60
2022/04/25 12:01:50;;;;;;;11.57;10.25;;;12.00;99.90;;;;;;7303781;32;20419;-61
2022/04/25 12:05:52;;;;;;;15.10;11.95;;;11.80;99.90;;;;;;7306330;32;20108;-61
2022/04/25 12:19:06;;;;;;;16.02;14.32;;;11.50;99.90;;;;;;7303753;32;20129;-69
2022/04/25 12:23:10;;;;;;;12.70;11.50;;;12.00;99.90;;;;;;7319162;32;20204;-60
2022/04/25 12:27:13;;;;;;;12.10;10.80;;;12.60;99.90;;;;;;7311711;32;20126;-61
2022/04/25 12:31:24;;;;;;;13.18;11.10;;;12.70;99.90;;;;;;7312145;32;20528;-69
2022/04/25 12:35:26;;;;;;;12.52;10.30;;;12.90;99.90;;;;;;7314080;32;20853;-62
2022/04/25 12:39:28;;;;;;;13.02;10.55;;;13.00;99.90;;;;;;7314732;32;20658;-61
2022/04/25 12:43:42;;;;;;;11.95;9.60;;;12.90;99.90;;;;;;7311304;32;20104;-61
2022/04/25 12:47:58;;;;;;;10.90;9.07;;;13.10;99.90;;;;;;7311436;32;20279;-61
2022/04/25 12:52:01;;;;;;;12.50;9.73;;;13.20;99.90;;;;;;7314363;32;20111;-61
2022/04/25 12:56:05;;;;;;;12.15;10.00;;;13.50;99.90;;;;;;7316149;32;20175;-69
2022/04/25 13:00:15;;;;;;;10.43;8.57;;;13.40;99.90;;;;;;7312846;32;20206;-62
2022/04/25 13:04:19;;;;;;;13.38;9.13;;;13.50;99.90;;;;;;7311975;32;20161;-61
2022/04/25 13:08:23;;;;;;;9.60;8.55;;;13.10;99.90;;;;;;7297502;32;20100;-61
2022/04/25 13:12:32;;;;;;;12.00;10.02;;;12.60;99.90;;;;;;7307912;32;20350;-61
2022/04/25 13:16:33;;;;;;;11.48;9.48;;;12.80;99.90;;;;;;7310307;32;20140;-61
2022/04/25 13:20:35;;;;;;;10.18;8.50;;;12.70;99.90;;;;;;7316022;32;20578;-61
2022/04/25 13:24:37;;;;;;;10.20;8.75;;;12.60;99.90;;;;;;7313106;32;20730;-62
2022/04/25 13:28:42;;;;;;;9.20;8.23;;;12.60;99.90;;;;;;7310317;32;20198;-69
2022/04/25 13:32:44;;;;;;;14.35;9.48;;;13.00;99.90;;;;;;7313358;32;20208;-61
2022/04/25 13:36:46;;;;;;;8.50;7.60;;;13.20;99.90;;;;;;7309586;32;20179;-63
2022/04/25 13:40:48;;;;;;;9.80;8.80;;;13.20;99.90;;;;;;7313132;32;20103;-63
2022/04/25 13:44:49;;;;;;;11.27;9.20;;;12.90;99.90;;;;;;7303146;32;20131;-61
2022/04/25 13:48:51;;;;;;;9.90;8.55;;;12.70;99.90;;;;;;7312995;32;20125;-60
2022/04/25 13:52:53;;;;;;;10.48;8.70;;;12.50;99.90;;;;;;7315072;32;20099;-64
2022/04/25 13:56:59;;;;;;;12.40;8.15;;;12.60;99.90;;;;;;7314922;32;20103;-70
2022/04/25 14:01:03;;;;;;;10.43;7.90;;;12.70;99.90;;;;;;7301623;32;20126;-62
2022/04/25 14:05:05;;;;;;;8.40;6.50;;;12.70;99.90;;;;;;7308314;32;20290;-61
2022/04/25 14:09:07;;;;;;;8.57;7.07;;;12.80;99.90;;;;;;7312285;32;20471;-61
2022/04/25 14:13:11;;;;;;;8.00;7.20;;;13.20;99.90;;;;;;7313311;32;20104;-61
2022/04/25 14:17:13;;;;;;;9.75;7.65;;;13.60;99.90;;;;;;7313388;32;20501;-64
2022/04/25 14:21:15;;;;;;;10.27;8.48;;;14.00;99.90;;;;;;7319443;32;20095;-56
2022/04/25 14:25:17;;;;;;;9.23;7.80;;;14.00;99.90;;;;;;7318155;32;20095;-58
2022/04/25 14:29:19;;;;;;;10.40;9.18;;;14.00;99.90;;;;;;7316742;32;20200;-57
2022/04/25 14:33:22;;;;;;;11.32;8.90;;;14.10;99.90;;;;;;7318726;32;20116;-57
2022/04/25 14:37:23;;;;;;;9.25;8.10;;;13.80;99.90;;;;;;7319118;32;20183;-64
2022/04/25 14:41:27;;;;;;;11.48;8.52;;;13.60;99.90;;;;;;7317038;32;20115;-56
2022/04/25 14:45:29;;;;;;;10.95;7.97;;;13.40;99.90;;;;;;7313772;32;20135;-61
2022/04/25 14:58:13;;;;;;;9.25;7.70;;;12.90;99.90;;;;;;7317021;32;20169;-62
2022/04/25 15:02:15;;;;;;;8.05;6.78;;;12.80;99.90;;;;;;7315954;32;20543;-70
2022/04/25 15:06:20;;;;;;;7.90;6.82;;;12.70;99.90;;;;;;7316642;32;20139;-62
2022/04/25 15:10:22;;;;;;;9.02;6.72;;;12.80;99.90;;;;;;7317400;32;20439;-61
2022/04/25 15:14:24;;;;;;;10.30;9.07;;;12.80;99.90;;;;;;7315599;32;20208;-55
2022/04/25 15:18:26;;;;;;;9.63;8.05;;;13.00;99.90;;;;;;7318087;32;20107;-57
2022/04/25 15:22:27;;;;;;;8.75;7.85;;;13.20;99.90;;;;;;7318770;32;20385;-63
2022/04/25 15:26:31;;;;;;;8.75;7.32;;;13.40;99.90;;;;;;7319499;32;20813;-55
2022/04/25 15:30:32;;;;;;;8.85;7.87;;;13.40;99.90;;;;;;7318781;32;20225;-55
2022/04/25 15:34:34;;;;;;;8.70;7.80;;;13.60;99.90;;;;;;7319723;32;20157;-57
2022/04/25 15:38:37;;;;;;;8.07;7.25;;;13.70;99.90;;;;;;7316804;32;20761;-62
2022/04/25 15:42:39;;;;;;;7.82;6.68;;;13.80;99.90;;;;;;7317008;32;20173;-61
2022/04/25 15:46:42;;;;;;;15.68;13.02;;;13.70;99.90;;;;;;7318773;32;20118;-62
2022/04/25 15:50:44;;;;;;;7.43;6.72;;;13.60;99.90;;;;;;7308405;32;20197;-70
2022/04/25 15:59:07;;;;;;;8.48;7.68;;;13.60;99.90;;;;;;7313560;32;20195;-62
2022/04/25 16:03:08;;;;;;;9.93;8.68;;;13.50;99.90;;;;;;7295149;32;20199;-71
2022/04/25 16:07:10;;;;;;;8.32;7.50;;;13.40;99.90;;;;;;7308361;32;20270;-63
2022/04/25 16:11:12;;;;;;;8.88;7.62;;;12.90;99.90;;;;;;7295455;32;20122;-59
2022/04/25 16:15:15;;;;;;;8.20;7.28;;;12.50;99.90;;;;;;7305235;32;20226;-63
2022/04/25 16:19:17;;;;;;;7.70;7.05;;;12.30;99.90;;;;;;7308316;32;20391;-62
2022/04/25 16:23:18;;;;;;;8.57;7.53;;;12.00;99.90;;;;;;7294298;32;20489;-70
2022/04/25 16:27:22;;;;;;;9.05;7.70;;;11.70;99.90;;;;;;7305661;32;20135;-63
2022/04/25 16:31:23;;;;;;;8.35;7.55;;;11.60;99.90;;;;;;7305948;32;20707;-62
2022/04/25 16:35:27;;;;;;;7.70;7.00;;;11.50;99.90;;;;;;7311252;32;20194;-62
2022/04/25 16:39:33;;;;;;;8.55;7.40;;;11.50;99.90;;;;;;7310173;32;20727;-62
2022/04/25 16:43:44;;;;;;;8.00;7.20;;;11.40;99.90;;;;;;7294781;32;20191;-70
2022/04/25 16:47:46;;;;;;;9.98;7.22;;;11.50;99.90;;;;;;7299738;32;20360;-63
2022/04/25 16:51:48;;;;;;;7.05;6.35;;;11.30;99.90;;;;;;7303577;32;20119;-63
2022/04/25 16:55:50;;;;;;;9.95;8.50;;;11.20;99.90;;;;;;7303482;32;20311;-63
2022/04/25 16:59:52;;;;;;;8.88;7.47;;;11.20;99.90;;;;;;7305305;32;20481;-62
2022/04/25 17:03:53;;;;;;;8.20;7.40;;;11.20;99.90;;;;;;7304268;32;20126;-62
2022/04/25 17:07:55;;;;;;;8.32;7.47;;;11.20;99.90;;;;;;7308037;32;20267;-61
2022/04/25 17:11:59;;;;;;;8.65;7.50;;;11.00;99.90;;;;;;7304631;32;20249;-61
2022/04/25 17:16:00;;;;;;;8.98;8.07;;;10.90;99.90;;;;;;7307361;32;20302;-60
2022/04/25 17:20:03;;;;;;;10.40;9.27;;;10.90;99.90;;;;;;7304717;32;20119;-59
2022/04/25 17:24:05;;;;;;;11.50;9.73;;;10.70;99.90;;;;;;7315514;32;20721;-60
2022/04/25 17:28:10;;;;;;;14.50;9.95;;;10.70;99.90;;;;;;7315702;32;20105;-59
2022/04/25 17:37:06;;;;;;;12.75;10.15;;;10.70;99.90;;;;;;7315793;32;20126;-60
2022/04/25 17:45:59;;;;;;;11.60;10.50;;;10.60;99.90;;;;;;7315594;32;20784;-61
